Metar Cercanos

 

LEPA - Palma De Mallorc, Spain
Distance from station: ONO 38km
Actualización: 24/09/2017 17:30
Few Clouds
Few Clouds
 Viento del SO
Viento: SO 20 km/h
Temperatura: 25°C
Rocío: 20°C
Humedad: 74%
Barómetro: 1020 hPa
Clouds: Few Clouds
Visibility: 10 km
Cloud details: Few Clouds 914 m
2017/09/24 15:30 LEPA 241530Z 23011KT 9999 FEW030 25/20 Q1020 NOSIG
LEMH - Mahon/Menorca Is, Spain
Distance from station: ENE 105km
Actualización: 24/09/2017 17:30
Few Clouds
Few Clouds
 Viento del OSO
Viento: OSO 17 km/h
Temperatura: 24°C
Rocío: 17°C
Humedad: 65%
Barómetro: 1020 hPa
Clouds: Few Clouds
Visibility: 10 km
Cloud details: Few Clouds 762 m
2017/09/24 15:30 LEMH 241530Z 25009KT 210V280 9999 FEW025 24/17 Q1020
 
LEIB - Ibiza/Es Codola, Spain
Distance from station: OSO 165km
Actualización: 24/09/2017 17:30
Despejado
Despejado
 Viento del SSO
Viento: SSO 19 km/h
Temperatura: 25°C
Rocío: 19°C
Humedad: 69%
Barómetro: 1020 hPa
Resumen: Despejado
Visibility: greater than 10 km
2017/09/24 15:30 LEIB 241530Z 21010KT CAVOK 25/19 Q1020 NOSIG
LEBL - Barcelona Airpor, Spain
Distance from station: NNO 225km
Actualización: 24/09/2017 17:30
Parcialmente nuboso
Parcialmente nuboso
 Viento del SO
Viento: SO 26 km/h
Temperatura: 25°C
Rocío: 20°C
Humedad: 74%
Barómetro: 1018 hPa
Clouds: Parcialmente nuboso
Visibility: 10 km
Cloud details: Parcialmente nuboso 518 m
2017/09/24 15:30 LEBL 241530Z 23014KT 190V250 9999 SCT017 25/20 Q1018 NOSIG
 
LEVC - Valencia (civ/Mi, Spain
Distance from station: NO 188km
Actualización: 24/09/2017 17:30
Few Clouds
Few Clouds
 Viento del SE
Viento: SE 19 km/h
Temperatura: 30°C
Rocío: 14°C
Humedad: 38%
Barómetro: 1017 hPa
Clouds: Few Clouds
Visibility: 10 km
Cloud details: Few Clouds 1372 m
2017/09/24 15:30 LEVC 241530Z 13010KT 9999 FEW045 30/14 Q1017 NOSIG
LEGE - Gerona/Costa Bra, Spain
Distance from station: N 276km
Actualización: 24/09/2017 17:30
Few Clouds
Few Clouds
 Viento del SSO
Viento: SSO 17 km/h
Temperatura: 26°C
Rocío: 14°C
Humedad: 48%
Barómetro: 1018 hPa
Clouds: Few Clouds
Visibility: 10 km
Cloud details: Few Clouds 1219 m
2017/09/24 15:30 LEGE 241530Z 20009KT 170V230 9999 FEW040 26/14 Q1018
 
LEAL - Alicante/El Alte, Spain
Distance from station: OSO 344km
Actualización: 24/09/2017 17:30
Despejado
Despejado
 Viento del S
Viento: S 15 km/h
Temperatura: 27°C
Indice Calor: 28°C
Rocío: 19°C
Humedad: 62%
Barómetro: 1019 hPa
Resumen: Despejado
Visibility: greater than 10 km
2017/09/24 15:30 LEAL 241530Z 19008KT 100V240 CAVOK 27/19 Q1019 NOSIG
LEAM - Almeria Airport, Spain
Distance from station: SSO 56km
Actualización: 24/09/2017 17:30
Few Clouds
Few Clouds
 Viento del S
Viento: S 13 km/h
Temperatura: 25°C
Rocío: 21°C
Humedad: 79%
Barómetro: 1020 hPa
Clouds: Few Clouds
Visibility: 10 km
Cloud details: Few Clouds 914 m
2017/09/24 15:30 LEAM 241530Z 17007KT 9999 FEW030 25/21 Q1020
 
LEZG - Zaragoza (mil/Ci, Spain
Distance from station: NO 431km
Actualización: 24/09/2017 17:30
Despejado
Despejado
 Viento del ENE
Viento: ENE 11 km/h
Temperatura: 30°C
Rocío: 11°C
Humedad: 31%
Barómetro: 1017 hPa
Resumen: Despejado
Visibility: greater than 10 km
2017/09/24 15:30 LEZG 241530Z 06006KT 020V100 CAVOK 30/11 Q1017
LEMD - Madrid/Barajas, Spain
Distance from station: ONO 234km
Actualización: 24/09/2017 17:30
Despejado
Despejado
 Viento del SO
Viento: SO 19 km/h, Racha: 39 km/h
Temperatura: 30°C
Rocío: 6°C
Humedad: 22%
Barómetro: 1020 hPa
Resumen: Despejado
Visibility: greater than 10 km
2017/09/24 15:30 LEMD 241530Z 23010G21KT CAVOK 30/06 Q1020 NOSIG
 
LEGR - Granada Airport, Spain
Distance from station: OSO 62km
Actualización: 24/09/2017 17:30
Few Clouds
Few Clouds
 Viento del ONO
Viento: ONO 6 km/h
Temperatura: 31°C
Rocío: 6°C
Humedad: 21%
Barómetro: 1020 hPa
Clouds: Few Clouds
Visibility: 10 km
Cloud details: Few Clouds 1372 m
2017/09/24 15:30 LEGR 241530Z 29003KT 230V030 9999 FEW045 31/06 Q1020
LEMG - Malaga (civ/Mil), Spain
Distance from station: OSO 227km
Actualización: 24/09/2017 17:30
Few Clouds
Few Clouds
 Viento del SE
Viento: SE 15 km/h
Temperatura: 25°C
Rocío: 18°C
Humedad: 65%
Barómetro: 1020 hPa
Clouds: Few Clouds
Visibility: 10 km
Cloud details: Few Clouds 914 m
2017/09/24 15:30 LEMG 241530Z 14008KT 090V170 9999 FEW030 25/18 Q1020 NOSIG
 
LEZL - Sevilla (civ/Mil, Spain
Distance from station: S 318km
Actualización: 24/09/2017 17:30
Despejado
Despejado
 Viento del O
Viento: O 7 km/h
Temperatura: 32°C
Rocío: 11°C
Humedad: 27%
Barómetro: 1018 hPa
Resumen: Despejado
Visibility: greater than 10 km
2017/09/24 15:30 LEZL 241530Z 26004KT CAVOK 32/11 Q1018 NOSIG
LEVT - Vitoria, Spain
Distance from station: NO 226km
Actualización: 24/09/2017 17:30
Despejado
Despejado
 Viento del OSO
Viento: OSO 15 km/h
Temperatura: 30°C
Rocío: 3°C
Humedad: 18%
Barómetro: 1018 hPa
Resumen: Despejado
Visibility: greater than 10 km
2017/09/24 15:30 LEVT 241530Z 25008KT 200V280 CAVOK 30/03 Q1018
 
LEBB - Bilbao/Sondica, Spain
Distance from station: NNO 235km
Actualización: 24/09/2017 17:30
Despejado
Despejado
 Viento del ONO
Viento: ONO 13 km/h
Temperatura: 24°C
Rocío: 18°C
Humedad: 69%
Barómetro: 1017 hPa
Resumen: Despejado
Visibility: greater than 10 km
2017/09/24 15:30 LEBB 241530Z 30007KT 260V330 CAVOK 24/18 Q1017 NOSIG
LESO - San Sebastian/Fu, Spain
Distance from station: N 231km
Actualización: 24/09/2017 17:30
Despejado
Despejado
 Viento del N
Viento: N 9 km/h
Temperatura: 22°C
Rocío: 20°C
Humedad: 88%
Barómetro: 1017 hPa
Resumen: Despejado
Visibility: greater than 10 km
2017/09/24 15:30 LESO 241530Z 01005KT CAVOK 22/20 Q1017
 
LEVD - Valladolid(Mil/C, Spain
Distance from station: ONO 239km
Actualización: 24/09/2017 17:30
Despejado
Despejado
 Viento del OSO
Viento: OSO 28 km/h
Temperatura: 27°C
Rocío: 1°C
Humedad: 18%
Barómetro: 1020 hPa
Resumen: Despejado
Visibility: greater than 10 km
2017/09/24 15:30 LEVD 241530Z 25015KT 220V290 CAVOK 27/01 Q1020
LESA - Salamanca (civ/M, Spain
Distance from station: ONO 349km
Actualización: 24/09/2017 17:30
Despejado
Despejado
 Viento del OSO
Viento: OSO 24 km/h
Temperatura: 28°C
Rocío: 5°C
Humedad: 23%
Barómetro: 1021 hPa
Resumen: Despejado
Visibility: greater than 10 km
2017/09/24 15:30 LESA 241530Z 24013KT 210V280 CAVOK 28/05 Q1021
 
LEXJ - Santander/Paraya, Spain
Distance from station: NNO 247km
Actualización: 24/09/2017 17:30
Despejado
Despejado
 Viento del NE
Viento: NE 7 km/h
Temperatura: 21°C
Rocío: 18°C
Humedad: 83%
Barómetro: 1017 hPa
Resumen: Despejado
Visibility: greater than 10 km
2017/09/24 15:30 LEXJ 241530Z 04004KT 350V100 CAVOK 21/18 Q1017
LEAS - Asturias/Aviles, Spain
Distance from station: NO 214km
Actualización: 24/09/2017 17:46
Parcialmente nuboso
Parcialmente nuboso
 Viento del varies
Viento: varies 4 km/h
Temperatura: 20°C
Rocío: 17°C
Humedad: 83%
Barómetro: 1019 hPa
Clouds: Parcialmente nuboso
Visibility: 10 km
Cloud details: Parcialmente nuboso 305 m
2017/09/24 15:46 LEAS 241546Z VRB02KT 9999 SCT010 20/17 Q1019 TEMPO 3000 -DZ BKN010
 
LECO - La Coruna/Alvedr, Spain
Distance from station: ONO 222km
Actualización: 24/09/2017 17:30
Parcialmente nuboso
Parcialmente nuboso
 Viento del S
Viento: S 13 km/h
Temperatura: 18°C
Rocío: 15°C
Humedad: 83%
Barómetro: 1020 hPa
Clouds: Parcialmente nuboso
Visibility: 10 km
Cloud details: Parcialmente nuboso 732 m
Parcialmente nuboso 1158 m
2017/09/24 15:30 LECO 241530Z 19007KT 160V220 9999 SCT024 SCT038 18/15 Q1020 TEMPO 3000 RA
LEVX - Vigo/Peinador, Spain
Distance from station: O 214km
Actualización: 24/09/2017 17:30
Lluvia débil, Patches of, Niebla, Cubierto
Lluvia débil, Patches of, Niebla, Cubierto
 Viento del SSO
Viento: SSO 9 km/h
Temperatura: 16°C
Rocío: 15°C
Humedad: 94%
Barómetro: 1021 hPa
Resumen: Lluvia débil, Patches of, Niebla
Clouds: Cubierto
Visibility: 1 km
Cloud details: Cubierto 30 m
2017/09/24 15:30 LEVX 241530Z 20005KT 150V230 0700 R19/1900N R01/1100D -RA BCFG VV001 16/15 Q1021 TEMPO 1400 DZ BKN005